createdAt,value
2024-01-10T00:01:17.467Z,3.90
2024-01-10T00:03:49.718Z,3.97
2024-01-10T00:06:21.968Z,4.20
2024-01-10T00:08:54.002Z,4.10
2024-01-10T00:11:26.137Z,4.43
2024-01-10T00:14:01.057Z,3.77
2024-01-10T00:16:33.421Z,3.97
2024-01-10T00:19:05.457Z,4.10
2024-01-10T00:21:37.601Z,4.13
2024-01-10T00:24:09.560Z,3.70
2024-01-10T00:26:41.556Z,4.03
2024-01-10T00:29:13.673Z,3.57
2024-01-10T00:31:46.064Z,3.67
2024-01-10T00:34:18.121Z,3.40
2024-01-10T00:36:50.090Z,3.77
2024-01-10T00:39:22.086Z,3.70
2024-01-10T00:41:54.093Z,3.80
2024-01-10T00:44:26.200Z,3.40
2024-01-10T00:46:58.505Z,3.70
2024-01-10T00:49:30.459Z,3.70
2024-01-10T00:52:02.561Z,3.70
2024-01-10T00:54:34.524Z,4.03
2024-01-10T00:57:06.492Z,3.77
2024-01-10T00:59:38.423Z,3.40
2024-01-10T01:02:10.416Z,3.73
2024-01-10T01:04:42.602Z,3.57
2024-01-10T01:07:14.827Z,3.50
2024-01-10T01:09:46.958Z,3.70
2024-01-10T01:12:19.075Z,3.83
2024-01-10T01:14:51.009Z,3.30
2024-01-10T01:17:23.053Z,3.87
2024-01-10T01:19:55.567Z,3.00
2024-01-10T01:22:27.882Z,3.50
2024-01-10T01:24:59.858Z,4.10
2024-01-10T01:27:31.871Z,3.50
2024-01-10T01:30:04.755Z,3.33
2024-01-10T01:32:36.922Z,3.57
2024-01-10T01:35:09.149Z,3.27
2024-01-10T01:37:41.165Z,3.60
2024-01-10T01:40:13.460Z,3.63
2024-01-10T01:42:46.947Z,3.47
2024-01-10T01:45:18.895Z,3.07
2024-01-10T01:47:51.542Z,3.30
2024-01-10T01:50:23.619Z,3.97
2024-01-10T01:52:55.632Z,3.33
2024-01-10T01:55:27.716Z,3.17
2024-01-10T01:57:59.834Z,3.77
2024-01-10T02:00:32.565Z,3.13
2024-01-10T02:03:07.987Z,3.40
2024-01-10T02:05:41.057Z,3.33
2024-01-10T02:08:13.092Z,3.53
2024-01-10T02:10:45.175Z,3.20
2024-01-10T02:13:18.664Z,3.40
2024-01-10T02:15:50.576Z,3.60
2024-01-10T02:18:22.611Z,3.27
2024-01-10T02:20:54.650Z,3.20
2024-01-10T02:23:26.810Z,3.53
2024-01-10T02:25:59.131Z,3.30
2024-01-10T02:28:31.144Z,3.30
2024-01-10T02:31:04.204Z,3.60
2024-01-10T02:33:36.234Z,3.50
2024-01-10T02:36:08.294Z,3.70
2024-01-10T02:38:40.267Z,3.10
2024-01-10T02:41:12.645Z,3.40
2024-01-10T02:43:44.698Z,3.07
2024-01-10T02:46:16.754Z,3.50
2024-01-10T02:48:48.805Z,3.43
2024-01-10T02:51:20.781Z,3.87
2024-01-10T02:53:52.760Z,3.50
2024-01-10T02:56:24.879Z,3.30
2024-01-10T02:58:56.908Z,3.63
2024-01-10T03:01:29.143Z,3.30
2024-01-10T03:04:01.174Z,3.30
2024-01-10T03:06:33.306Z,3.60
2024-01-10T03:09:05.374Z,3.07
2024-01-10T03:11:37.412Z,3.70
2024-01-10T03:14:11.740Z,3.90
2024-01-10T03:16:43.726Z,3.37
2024-01-10T03:19:16.482Z,3.57
2024-01-10T03:21:48.657Z,3.60
2024-01-10T03:24:20.815Z,3.53
2024-01-10T03:26:52.713Z,3.80
2024-01-10T03:29:24.715Z,3.60
2024-01-10T03:31:56.795Z,3.67
2024-01-10T03:34:28.765Z,3.43
2024-01-10T03:37:00.690Z,3.33
2024-01-10T03:39:32.922Z,3.40
2024-01-10T03:42:05.060Z,3.20
2024-01-10T03:44:37.629Z,3.43
2024-01-10T03:47:09.765Z,3.67
2024-01-10T03:49:41.770Z,3.57
2024-01-10T03:52:13.735Z,3.30
2024-01-10T03:54:45.689Z,3.53
2024-01-10T03:57:17.666Z,3.63
2024-01-10T03:59:49.632Z,3.90
2024-01-10T04:02:21.662Z,3.50
2024-01-10T04:04:53.672Z,3.40
2024-01-10T04:07:28.542Z,3.37
2024-01-10T04:10:01.788Z,4.00
2024-01-10T04:12:33.794Z,3.57
2024-01-10T04:15:06.938Z,3.97
2024-01-10T04:17:39.528Z,3.60
2024-01-10T04:20:11.994Z,3.90
2024-01-10T04:22:44.099Z,3.57
2024-01-10T04:25:16.091Z,3.83
2024-01-10T04:27:48.091Z,4.00
2024-01-10T04:30:20.134Z,3.70
2024-01-10T04:32:52.160Z,4.00
2024-01-10T04:35:24.231Z,3.97
2024-01-10T04:37:56.166Z,3.47
2024-01-10T04:40:28.164Z,3.70
2024-01-10T04:43:00.122Z,3.73
2024-01-10T04:45:32.086Z,3.47
2024-01-10T04:48:04.428Z,3.67
2024-01-10T04:50:37.197Z,3.80
2024-01-10T04:53:09.344Z,3.37
2024-01-10T04:55:41.329Z,3.63
2024-01-10T04:58:13.407Z,3.87
2024-01-10T05:00:45.385Z,4.50
2024-01-10T05:03:17.434Z,3.77
2024-01-10T05:05:49.614Z,3.60
2024-01-10T05:08:22.331Z,3.73
2024-01-10T05:10:54.782Z,3.43
2024-01-10T05:13:26.755Z,3.83
2024-01-10T05:15:59.399Z,4.10
2024-01-10T05:18:31.397Z,4.00
2024-01-10T05:21:05.103Z,3.93
2024-01-10T05:23:39.795Z,4.23
2024-01-10T05:26:12.017Z,3.83
2024-01-10T05:28:44.052Z,3.53
2024-01-10T05:31:16.336Z,4.53
2024-01-10T05:33:48.332Z,3.67
2024-01-10T05:36:24.322Z,3.83
2024-01-10T05:38:56.232Z,3.93
2024-01-10T05:41:28.412Z,4.40
2024-01-10T05:44:00.471Z,3.80
2024-01-10T05:46:32.415Z,3.80
2024-01-10T05:49:05.711Z,3.90
2024-01-10T05:51:38.955Z,3.50
2024-01-10T05:54:11.089Z,3.60
2024-01-10T05:56:43.097Z,3.57
2024-01-10T05:59:17.924Z,3.50
2024-01-10T06:01:50.643Z,3.80
2024-01-10T06:04:22.655Z,3.90
2024-01-10T06:06:54.618Z,3.43
2024-01-10T06:09:26.732Z,4.13
2024-01-10T06:11:58.807Z,3.87
2024-01-10T06:14:30.735Z,3.70
2024-01-10T06:17:04.969Z,3.67
2024-01-10T06:19:36.973Z,4.10
2024-01-10T06:22:09.012Z,4.00
2024-01-10T06:24:42.193Z,3.70
2024-01-10T06:27:14.176Z,4.00
2024-01-10T06:29:46.403Z,4.00
2024-01-10T06:32:18.484Z,3.97
2024-01-10T06:34:50.530Z,3.67
2024-01-10T06:37:22.554Z,3.20
2024-01-10T06:39:54.524Z,3.97
2024-01-10T06:42:27.553Z,3.33
2024-01-10T06:44:59.505Z,4.40
2024-01-10T06:47:31.538Z,4.07
2024-01-10T06:50:03.759Z,3.90
2024-01-10T06:52:35.795Z,4.07
2024-01-10T06:55:09.195Z,3.53
2024-01-10T06:57:41.266Z,4.07
2024-01-10T07:00:14.886Z,3.80
2024-01-10T07:02:46.842Z,3.73
2024-01-10T07:05:19.009Z,3.77
2024-01-10T07:07:51.302Z,4.37
2024-01-10T07:10:27.157Z,3.30
2024-01-10T07:12:59.381Z,3.70
2024-01-10T07:15:32.082Z,4.10
2024-01-10T07:18:05.303Z,3.93
2024-01-10T07:20:38.928Z,3.93
2024-01-10T07:23:11.495Z,4.07
2024-01-10T07:25:43.628Z,4.45
2024-01-10T07:28:15.603Z,4.57
2024-01-10T07:30:48.488Z,4.13
2024-01-10T07:33:21.549Z,4.00
2024-01-10T07:35:54.177Z,4.03
2024-01-10T07:38:26.363Z,3.93
2024-01-10T07:41:00.519Z,4.30
2024-01-10T07:43:32.702Z,4.63
2024-01-10T07:46:04.698Z,4.13
2024-01-10T07:48:37.290Z,4.27
2024-01-10T07:51:09.336Z,4.03
2024-01-10T07:53:41.412Z,4.27
2024-01-10T07:56:15.237Z,4.20
2024-01-10T07:58:47.282Z,4.67
2024-01-10T08:01:19.727Z,4.70
2024-01-10T08:03:51.807Z,4.83
2024-01-10T08:06:29.790Z,4.50
2024-01-10T08:09:05.740Z,4.90
2024-01-10T08:11:39.388Z,4.83
2024-01-10T08:14:11.359Z,4.20
2024-01-10T08:16:44.756Z,4.70
2024-01-10T08:19:17.731Z,4.53
2024-01-10T08:21:50.060Z,5.20
2024-01-10T08:24:22.213Z,4.30
2024-01-10T08:26:55.129Z,4.57
2024-01-10T08:29:31.644Z,4.30
2024-01-10T08:32:05.223Z,5.00
2024-01-10T08:34:37.289Z,4.33
2024-01-10T08:37:10.176Z,5.17
2024-01-10T08:39:44.075Z,4.93
2024-01-10T08:42:16.067Z,5.20
2024-01-10T08:44:48.074Z,5.10
2024-01-10T08:47:21.213Z,4.93
2024-01-10T08:49:53.564Z,4.87
2024-01-10T08:52:25.660Z,5.10
2024-01-10T08:54:57.843Z,5.40
2024-01-10T08:57:31.029Z,5.00
2024-01-10T09:00:07.382Z,5.00
2024-01-10T09:02:40.278Z,5.27
2024-01-10T09:05:12.785Z,5.33
2024-01-10T09:07:45.052Z,5.40
2024-01-10T09:10:17.556Z,5.50
2024-01-10T09:12:50.456Z,5.43
2024-01-10T09:15:22.429Z,5.83
2024-01-10T09:17:54.589Z,6.00
2024-01-10T09:20:26.717Z,6.37
2024-01-10T09:23:01.250Z,6.50
2024-01-10T09:25:33.337Z,6.23
2024-01-10T09:28:08.660Z,7.00
2024-01-10T09:30:42.670Z,6.63
2024-01-10T09:33:15.315Z,6.63
2024-01-10T09:35:47.380Z,6.93
2024-01-10T09:38:19.390Z,6.40
2024-01-10T09:40:56.276Z,6.37
2024-01-10T09:43:31.053Z,6.97
2024-01-10T09:46:03.912Z,6.70
2024-01-10T09:48:36.096Z,6.87
2024-01-10T09:51:09.111Z,6.60
2024-01-10T09:53:51.208Z,6.27
2024-01-10T09:56:23.342Z,7.30
2024-01-10T09:58:59.881Z,7.23
2024-01-10T10:01:33.350Z,7.07
2024-01-10T10:04:06.967Z,7.60
2024-01-10T10:06:39.489Z,6.90
2024-01-10T10:09:13.228Z,7.17
2024-01-10T10:11:45.208Z,7.43
2024-01-10T10:14:20.033Z,7.50
2024-01-10T10:16:52.220Z,8.37
2024-01-10T10:19:34.454Z,8.00
2024-01-10T10:22:12.670Z,7.83
2024-01-10T10:24:50.078Z,7.70
2024-01-10T10:27:22.886Z,8.00
2024-01-10T10:29:55.039Z,8.00
2024-01-10T10:32:27.009Z,8.20
2024-01-10T10:34:59.230Z,7.70
2024-01-10T10:37:31.190Z,8.53
2024-01-10T10:40:03.740Z,8.47
2024-01-10T10:42:40.092Z,8.40
2024-01-10T10:45:19.056Z,8.13
2024-01-10T10:47:57.910Z,7.83
2024-01-10T10:50:35.771Z,8.27
2024-01-10T10:53:09.198Z,8.97
2024-01-10T10:55:43.188Z,8.67
2024-01-10T10:58:16.349Z,8.50
2024-01-10T11:00:50.255Z,8.50
2024-01-10T11:03:22.947Z,8.17
2024-01-10T11:05:55.753Z,9.30
2024-01-10T11:08:30.252Z,8.43
2024-01-10T11:11:06.975Z,9.17
2024-01-10T11:13:56.965Z,8.97
2024-01-10T11:16:48.129Z,8.67
2024-01-10T11:19:59.884Z,8.53
2024-01-10T11:22:54.619Z,8.63
2024-01-10T11:25:31.289Z,8.97
2024-01-10T11:28:07.239Z,8.57
2024-01-10T11:30:53.619Z,8.83
2024-01-10T11:33:42.072Z,8.70
2024-01-10T11:36:25.712Z,8.63
2024-01-10T11:39:05.748Z,8.93
2024-01-10T11:41:42.019Z,8.83
2024-01-10T11:44:19.117Z,8.30
2024-01-10T11:46:54.608Z,8.63
2024-01-10T11:49:27.846Z,9.13
2024-01-10T11:52:02.055Z,9.00
2024-01-10T11:54:46.529Z,9.17
2024-01-10T11:57:18.647Z,8.77
2024-01-10T11:59:55.974Z,8.90
2024-01-10T12:02:29.311Z,9.53
2024-01-10T12:05:01.518Z,9.27
2024-01-10T12:07:33.676Z,9.27
2024-01-10T12:10:06.557Z,8.63
2024-01-10T12:12:38.551Z,9.00
2024-01-10T12:15:12.936Z,8.90
2024-01-10T12:17:45.716Z,9.10
2024-01-10T12:20:18.193Z,9.73
2024-01-10T12:22:50.212Z,10.60
2024-01-10T12:25:22.180Z,9.93
2024-01-10T12:27:54.142Z,9.60
2024-01-10T12:30:27.236Z,9.63
2024-01-10T12:33:02.849Z,9.60
2024-01-10T12:35:34.889Z,9.33
2024-01-10T12:38:07.052Z,9.70
2024-01-10T12:40:39.192Z,9.43
2024-01-10T12:43:13.900Z,8.90
2024-01-10T12:45:47.117Z,9.37
2024-01-10T12:48:19.133Z,8.93
2024-01-10T12:50:51.135Z,9.03
2024-01-10T12:53:23.276Z,9.50
2024-01-10T12:55:56.851Z,9.30
2024-01-10T12:58:30.282Z,9.53
2024-01-10T13:01:06.174Z,9.77
2024-01-10T13:03:38.972Z,9.30
2024-01-10T13:06:11.419Z,9.33
2024-01-10T13:08:43.894Z,9.77
2024-01-10T13:11:16.356Z,9.60
2024-01-10T13:13:48.326Z,9.00
2024-01-10T13:16:20.284Z,9.80
2024-01-10T13:18:52.415Z,9.97
2024-01-10T13:21:24.552Z,9.93
2024-01-10T13:23:56.674Z,10.00
2024-01-10T13:26:28.734Z,9.13
2024-01-10T13:29:00.784Z,9.47
2024-01-10T13:31:32.765Z,9.67
2024-01-10T13:34:05.604Z,9.47
2024-01-10T13:36:37.630Z,8.80
2024-01-10T13:39:09.579Z,9.17
2024-01-10T13:41:41.738Z,9.70
2024-01-10T13:44:13.917Z,9.70
2024-01-10T13:46:46.269Z,9.77
2024-01-10T13:49:19.094Z,10.50
2024-01-10T13:51:51.074Z,10.13
2024-01-10T13:54:23.080Z,9.23
2024-01-10T13:56:55.025Z,9.90
2024-01-10T13:59:27.030Z,9.87
2024-01-10T14:02:00.498Z,9.63
2024-01-10T14:04:32.529Z,9.60
2024-01-10T14:07:05.341Z,10.07
2024-01-10T14:09:37.440Z,10.20
2024-01-10T14:12:09.435Z,9.53
2024-01-10T14:14:41.465Z,9.63
2024-01-10T14:17:13.489Z,10.33
2024-01-10T14:19:45.512Z,9.77
2024-01-10T14:22:28.468Z,9.73
2024-01-10T14:25:03.982Z,9.57
2024-01-10T14:27:36.368Z,9.67
2024-01-10T14:30:09.948Z,9.47
2024-01-10T14:32:42.412Z,9.70
2024-01-10T14:35:14.977Z,10.13
2024-01-10T14:37:47.243Z,10.20
2024-01-10T14:40:19.304Z,10.10
2024-01-10T14:42:51.640Z,9.40
2024-01-10T14:45:23.762Z,9.50
2024-01-10T14:47:55.950Z,9.47
2024-01-10T14:50:28.002Z,9.77
2024-01-10T14:53:00.143Z,9.90
2024-01-10T14:55:32.215Z,10.30
2024-01-10T14:58:04.842Z,9.77
2024-01-10T15:00:36.858Z,10.37
2024-01-10T15:03:16.210Z,9.13
2024-01-10T15:05:56.304Z,10.10
2024-01-10T15:08:28.507Z,9.60
2024-01-10T15:11:00.941Z,9.60
2024-01-10T15:13:33.002Z,9.50
2024-01-10T15:16:05.405Z,9.70
2024-01-10T15:18:37.819Z,9.40
2024-01-10T15:21:09.818Z,9.60
2024-01-10T15:23:43.171Z,9.80
2024-01-10T15:26:22.065Z,9.73
2024-01-10T15:29:05.397Z,9.10
2024-01-10T15:31:37.787Z,9.50
2024-01-10T15:34:10.644Z,10.77
2024-01-10T15:36:43.496Z,9.90
2024-01-10T15:39:15.549Z,10.47
2024-01-10T15:41:52.393Z,9.77
2024-01-10T15:44:24.484Z,10.20
2024-01-10T15:46:58.825Z,9.17
2024-01-10T15:49:30.871Z,9.80
2024-01-10T15:52:03.025Z,10.17
2024-01-10T15:54:38.916Z,12.97
2024-01-10T15:57:10.956Z,10.73
2024-01-10T15:59:42.903Z,10.40
2024-01-10T16:02:15.003Z,10.73
2024-01-10T16:04:47.541Z,10.30
2024-01-10T16:07:19.564Z,10.63
2024-01-10T16:09:51.628Z,10.87
2024-01-10T16:12:24.546Z,10.33
2024-01-10T16:14:56.552Z,10.43
2024-01-10T16:17:28.614Z,10.23
2024-01-10T16:20:00.692Z,10.10
2024-01-10T16:22:36.221Z,13.90
2024-01-10T16:25:08.604Z,11.93
2024-01-10T16:27:40.534Z,11.07
2024-01-10T16:30:13.338Z,10.67
2024-01-10T16:32:45.418Z,11.27
2024-01-10T16:35:17.539Z,11.00
2024-01-10T16:37:49.636Z,10.33
2024-01-10T16:40:21.750Z,10.83
2024-01-10T16:42:53.763Z,10.43
2024-01-10T16:45:26.932Z,10.27
2024-01-10T16:47:59.093Z,10.50
2024-01-10T16:50:32.185Z,13.93
2024-01-10T16:53:04.873Z,11.90
2024-01-10T16:55:37.560Z,11.73
2024-01-10T16:58:09.950Z,11.03
2024-01-10T17:00:41.985Z,11.23
2024-01-10T17:03:14.055Z,10.67
2024-01-10T17:05:47.277Z,10.10
2024-01-10T17:08:19.595Z,11.37
2024-01-10T17:10:51.660Z,10.60
2024-01-10T17:13:24.614Z,11.37
2024-01-10T17:15:56.602Z,11.03
2024-01-10T17:18:29.560Z,10.97
2024-01-10T17:21:01.611Z,11.10
2024-01-10T17:23:33.662Z,10.50
2024-01-10T17:26:05.969Z,11.40
2024-01-10T17:28:37.926Z,10.97
2024-01-10T17:31:09.915Z,10.40
2024-01-10T17:33:42.102Z,10.90
2024-01-10T17:36:14.193Z,11.30
2024-01-10T17:38:46.538Z,10.37
2024-01-10T17:41:19.669Z,10.87
2024-01-10T17:43:53.142Z,10.93
2024-01-10T17:46:25.245Z,10.53
2024-01-10T17:48:57.476Z,11.50
2024-01-10T17:51:29.619Z,11.77
2024-01-10T17:54:02.108Z,11.83
2024-01-10T17:56:35.390Z,11.33
2024-01-10T17:59:07.479Z,10.87
2024-01-10T18:01:40.147Z,10.53
2024-01-10T18:04:14.800Z,11.67
2024-01-10T18:06:47.322Z,11.23
2024-01-10T18:09:19.342Z,11.27
2024-01-10T18:11:52.321Z,11.83
2024-01-10T18:14:24.382Z,11.50
2024-01-10T18:16:56.447Z,12.47
2024-01-10T18:19:28.691Z,12.07
2024-01-10T18:22:00.756Z,12.33
2024-01-10T18:24:32.765Z,13.37
2024-01-10T18:27:05.041Z,14.53
2024-01-10T18:29:37.011Z,14.67
2024-01-10T18:32:09.129Z,13.03
2024-01-10T18:34:41.235Z,12.70
2024-01-10T18:37:13.297Z,12.87
2024-01-10T18:39:45.583Z,12.73
2024-01-10T18:42:17.562Z,12.77
2024-01-10T18:44:49.496Z,12.60
2024-01-10T18:47:23.258Z,11.93
2024-01-10T18:49:55.992Z,11.73
2024-01-10T18:52:28.370Z,11.67
2024-01-10T18:55:00.346Z,13.23
2024-01-10T18:57:32.434Z,13.97
2024-01-10T19:00:10.569Z,14.00
2024-01-10T19:02:42.587Z,14.33
2024-01-10T19:05:17.516Z,16.00
2024-01-10T19:07:53.421Z,16.70
2024-01-10T19:10:26.963Z,18.10
2024-01-10T19:12:59.129Z,15.47
2024-01-10T19:15:33.273Z,14.17
2024-01-10T19:18:05.659Z,14.87
2024-01-10T19:20:37.887Z,15.23
2024-01-10T19:23:10.063Z,13.10
2024-01-10T19:25:42.195Z,14.40
2024-01-10T19:28:14.295Z,15.43
2024-01-10T19:30:46.380Z,15.80
2024-01-10T19:33:18.649Z,15.10
2024-01-10T19:35:51.299Z,14.40
2024-01-10T19:38:23.334Z,14.83
2024-01-10T19:40:55.331Z,12.97
2024-01-10T19:43:28.666Z,12.47
2024-01-10T19:46:00.686Z,12.40
2024-01-10T19:48:35.996Z,13.20
2024-01-10T19:51:08.555Z,12.27
2024-01-10T19:53:40.791Z,12.73
2024-01-10T19:56:12.856Z,13.00
2024-01-10T19:58:46.257Z,14.93
2024-01-10T20:01:19.921Z,13.87
2024-01-10T20:03:52.426Z,13.20
2024-01-10T20:06:24.706Z,13.23
2024-01-10T20:08:56.793Z,13.40
2024-01-10T20:11:28.897Z,14.00
2024-01-10T20:14:00.941Z,12.73
2024-01-10T20:16:32.940Z,12.43
2024-01-10T20:19:05.231Z,13.40
2024-01-10T20:21:38.155Z,12.17
2024-01-10T20:24:10.105Z,13.00
2024-01-10T20:26:42.173Z,12.97
2024-01-10T20:29:14.270Z,12.60
2024-01-10T20:31:46.288Z,12.80
2024-01-10T20:34:18.447Z,12.30
2024-01-10T20:36:50.489Z,11.63
2024-01-10T20:39:22.416Z,11.80
2024-01-10T20:41:55.040Z,12.53
2024-01-10T20:44:27.075Z,12.47
2024-01-10T20:46:59.196Z,12.03
2024-01-10T20:49:32.723Z,12.23
2024-01-10T20:52:05.566Z,12.40
2024-01-10T20:54:39.493Z,11.93
2024-01-10T20:57:12.665Z,12.40
2024-01-10T20:59:44.645Z,11.80
2024-01-10T21:02:16.761Z,12.17
2024-01-10T21:04:48.844Z,12.00
2024-01-10T21:07:21.063Z,11.93
2024-01-10T21:09:53.162Z,12.57
2024-01-10T21:12:25.224Z,12.63
2024-01-10T21:14:58.576Z,12.57
2024-01-10T21:17:31.437Z,12.40
2024-01-10T21:20:03.649Z,12.50
2024-01-10T21:22:36.542Z,12.83
2024-01-10T21:25:09.002Z,12.43
2024-01-10T21:27:41.508Z,12.50
2024-01-10T21:30:14.933Z,11.60
2024-01-10T21:32:46.990Z,12.53
2024-01-10T21:35:18.979Z,12.33
2024-01-10T21:37:50.990Z,11.90
2024-01-10T21:40:23.014Z,12.47
2024-01-10T21:42:55.048Z,12.60
2024-01-10T21:45:26.964Z,12.17
2024-01-10T21:47:59.019Z,11.90
2024-01-10T21:50:31.279Z,11.57
2024-01-10T21:53:03.446Z,12.07
2024-01-10T21:55:36.022Z,12.10
2024-01-10T21:58:08.010Z,12.57
2024-01-10T22:00:39.970Z,12.10
2024-01-10T22:03:20.995Z,12.30
2024-01-10T22:05:57.403Z,12.27
2024-01-10T22:08:29.538Z,12.50
2024-01-10T22:11:01.589Z,12.27
2024-01-10T22:13:33.751Z,12.40
2024-01-10T22:16:07.618Z,12.70
2024-01-10T22:18:39.823Z,11.30
2024-01-10T22:21:11.907Z,12.33
2024-01-10T22:23:43.869Z,12.77
2024-01-10T22:26:15.964Z,12.83
2024-01-10T22:28:48.074Z,13.40
2024-01-10T22:31:20.025Z,12.10
2024-01-10T22:33:52.063Z,12.70
2024-01-10T22:36:24.103Z,13.00
2024-01-10T22:38:56.396Z,13.30
2024-01-10T22:41:28.377Z,13.00
2024-01-10T22:44:00.429Z,12.90
2024-01-10T22:46:32.681Z,13.23
2024-01-10T22:49:04.650Z,13.10
2024-01-10T22:51:36.654Z,13.57
2024-01-10T22:54:08.809Z,13.20
2024-01-10T22:56:41.070Z,13.53
2024-01-10T22:59:13.146Z,13.20
2024-01-10T23:01:45.143Z,14.33
2024-01-10T23:04:17.107Z,14.23
2024-01-10T23:06:49.945Z,14.60
2024-01-10T23:09:21.897Z,13.20
2024-01-10T23:11:54.879Z,14.03
2024-01-10T23:14:26.819Z,13.97
2024-01-10T23:16:58.873Z,14.13
2024-01-10T23:19:31.117Z,13.50
2024-01-10T23:22:03.635Z,13.93
2024-01-10T23:24:35.611Z,13.77
2024-01-10T23:27:07.549Z,13.17
2024-01-10T23:29:40.094Z,13.53
2024-01-10T23:32:12.055Z,14.13
2024-01-10T23:34:45.012Z,13.90
2024-01-10T23:37:17.021Z,14.53
2024-01-10T23:39:49.008Z,14.80
2024-01-10T23:42:21.048Z,14.13
2024-01-10T23:44:52.992Z,14.17
2024-01-10T23:47:25.087Z,14.53
2024-01-10T23:49:57.152Z,14.83
2024-01-10T23:52:29.140Z,14.20
2024-01-10T23:55:01.082Z,13.50
2024-01-10T23:57:33.137Z,14.47
